createdAt,value
2023-05-23T00:02:26.166Z,5.20
2023-05-23T00:05:33.244Z,7.38
2023-05-23T00:08:36.899Z,5.82
2023-05-23T00:11:45.453Z,8.05
2023-05-23T00:14:49.436Z,6.18
2023-05-23T00:17:55.701Z,5.60
2023-05-23T00:21:02.278Z,6.50
2023-05-23T00:24:07.766Z,8.75
2023-05-23T00:27:11.750Z,4.97
2023-05-23T00:30:16.372Z,13.05
2023-05-23T00:33:22.805Z,7.35
2023-05-23T00:36:28.380Z,10.07
2023-05-23T00:39:35.428Z,5.93
2023-05-23T00:42:42.300Z,9.43
2023-05-23T00:45:46.073Z,4.70
2023-05-23T00:48:49.865Z,4.32
2023-05-23T00:51:58.148Z,5.05
2023-05-23T00:55:02.878Z,5.40
2023-05-23T00:58:07.236Z,6.95
2023-05-23T01:01:11.574Z,6.93
2023-05-23T01:04:17.052Z,6.75
2023-05-23T01:07:22.205Z,7.05
2023-05-23T01:10:27.749Z,8.40
2023-05-23T01:13:37.437Z,6.95
2023-05-23T01:16:48.892Z,6.75
2023-05-23T01:19:58.344Z,5.32
2023-05-23T01:23:17.039Z,5.50
2023-05-23T01:26:32.628Z,9.15
2023-05-23T01:29:42.265Z,7.57
2023-05-23T01:32:46.387Z,9.88
2023-05-23T01:35:51.134Z,6.22
2023-05-23T01:38:54.991Z,5.50
2023-05-23T01:42:00.498Z,7.60
2023-05-23T01:45:05.677Z,8.70
2023-05-23T01:48:10.617Z,7.35
2023-05-23T01:51:17.738Z,7.97
2023-05-23T01:54:24.328Z,7.40
2023-05-23T01:57:28.671Z,6.25
2023-05-23T02:00:34.602Z,11.38
2023-05-23T02:03:39.202Z,5.22
2023-05-23T02:06:43.030Z,5.43
2023-05-23T02:09:50.155Z,4.10
2023-05-23T02:12:54.929Z,13.05
2023-05-23T02:16:02.517Z,5.72
2023-05-23T02:19:09.018Z,6.05
2023-05-23T02:22:12.921Z,6.22
2023-05-23T02:25:19.421Z,7.63
2023-05-23T02:28:23.380Z,9.45
2023-05-23T02:31:29.164Z,6.05
2023-05-23T02:34:33.240Z,10.00
2023-05-23T02:37:37.060Z,7.65
2023-05-23T02:40:41.492Z,9.07
2023-05-23T02:43:47.133Z,5.20
2023-05-23T02:46:52.210Z,8.27
2023-05-23T02:49:56.264Z,4.78
2023-05-23T02:53:00.792Z,6.80
2023-05-23T02:56:08.678Z,7.75
2023-05-23T02:59:13.577Z,8.18
2023-05-23T03:02:18.671Z,8.38
2023-05-23T03:05:22.517Z,5.38
2023-05-23T03:08:26.488Z,12.38
2023-05-23T03:11:30.184Z,7.93
2023-05-23T03:14:36.667Z,5.38
2023-05-23T03:17:42.431Z,11.82
2023-05-23T03:20:46.262Z,6.63
2023-05-23T03:23:50.349Z,6.13
2023-05-23T03:26:54.182Z,6.75
2023-05-23T03:29:57.934Z,8.35
2023-05-23T03:33:07.311Z,12.45
2023-05-23T03:36:11.872Z,13.57
2023-05-23T03:39:16.553Z,18.05
2023-05-23T03:42:20.489Z,22.58
2023-05-23T03:45:28.522Z,19.30
2023-05-23T03:48:34.288Z,29.45
2023-05-23T03:51:40.549Z,31.33
2023-05-23T03:54:44.246Z,32.28
2023-05-23T03:57:48.131Z,32.75
2023-05-23T04:00:53.374Z,32.97
2023-05-23T04:04:00.581Z,41.75
2023-05-23T04:07:09.288Z,34.75
2023-05-23T04:10:13.635Z,37.53
2023-05-23T04:13:18.404Z,38.90
2023-05-23T04:16:24.071Z,37.35
2023-05-23T04:19:29.811Z,40.42
2023-05-23T04:22:34.733Z,38.95
2023-05-23T04:25:43.299Z,43.40
2023-05-23T04:28:56.966Z,43.58
2023-05-23T04:32:01.101Z,46.85
2023-05-23T04:35:07.299Z,44.72
2023-05-23T04:38:14.517Z,42.58
2023-05-23T04:41:23.327Z,45.10
2023-05-23T04:44:50.863Z,43.15
2023-05-23T04:47:59.573Z,42.85
2023-05-23T04:51:15.156Z,39.17
2023-05-23T04:54:27.440Z,37.78
2023-05-23T04:57:32.476Z,43.65
2023-05-23T05:00:38.090Z,37.28
2023-05-23T05:03:42.489Z,43.13
2023-05-23T05:06:48.539Z,42.33
2023-05-23T05:09:52.670Z,38.45
2023-05-23T05:12:57.388Z,41.60
2023-05-23T05:16:05.789Z,42.45
2023-05-23T05:19:11.348Z,46.05
2023-05-23T05:22:16.708Z,45.30
2023-05-23T05:25:21.402Z,45.95
2023-05-23T05:28:25.818Z,44.22
2023-05-23T05:31:30.633Z,45.72
2023-05-23T05:34:35.351Z,47.67
2023-05-23T05:37:40.887Z,45.72
2023-05-23T05:40:46.215Z,43.60
2023-05-23T05:43:51.030Z,42.15
2023-05-23T05:46:55.284Z,51.40
2023-05-23T05:49:59.078Z,39.40
2023-05-23T05:53:04.548Z,41.88
2023-05-23T05:56:09.481Z,37.97
2023-05-23T05:59:17.074Z,38.33
2023-05-23T06:02:21.808Z,42.50
2023-05-23T06:05:26.655Z,34.60
2023-05-23T06:08:32.224Z,35.13
2023-05-23T06:11:39.692Z,37.53
2023-05-23T06:14:50.837Z,34.78
2023-05-23T06:17:55.402Z,32.90
2023-05-23T06:21:01.813Z,34.92
2023-05-23T06:24:07.269Z,29.60
2023-05-23T06:27:12.676Z,34.15
2023-05-23T06:30:17.690Z,34.88
2023-05-23T06:33:26.037Z,32.45
2023-05-23T06:36:33.665Z,29.52
2023-05-23T06:39:39.276Z,28.00
2023-05-23T06:42:43.613Z,40.70
2023-05-23T06:46:02.804Z,29.55
2023-05-23T06:52:17.500Z,33.13
2023-05-23T06:55:23.167Z,26.20
2023-05-23T06:58:27.139Z,29.98
2023-05-23T07:01:34.762Z,27.33
2023-05-23T07:04:42.771Z,29.65
2023-05-23T07:07:55.712Z,23.52
2023-05-23T07:11:02.425Z,28.55
2023-05-23T07:14:22.256Z,26.10
2023-05-23T07:17:34.305Z,26.95
2023-05-23T07:20:38.304Z,25.48
2023-05-23T07:23:51.634Z,24.48
2023-05-23T07:26:57.526Z,22.02
2023-05-23T07:30:03.247Z,21.83
2023-05-23T07:33:08.244Z,29.90
2023-05-23T07:36:12.468Z,21.95
2023-05-23T07:39:22.693Z,29.27
2023-05-23T07:42:29.302Z,24.38
2023-05-23T07:45:35.300Z,27.58
2023-05-23T07:48:40.240Z,30.33
2023-05-23T07:51:44.114Z,27.40
2023-05-23T07:54:47.999Z,22.98
2023-05-23T07:57:55.006Z,24.92
2023-05-23T08:00:59.811Z,25.23
2023-05-23T08:04:23.513Z,25.42
2023-05-23T08:07:29.323Z,24.27
2023-05-23T08:10:40.132Z,18.23
2023-05-23T08:13:49.782Z,15.18
2023-05-23T08:17:22.915Z,12.07
2023-05-23T08:20:31.141Z,14.32
2023-05-23T08:23:36.054Z,9.50
2023-05-23T08:26:39.804Z,9.77
2023-05-23T08:29:48.887Z,8.55
2023-05-23T08:32:54.095Z,7.20
2023-05-23T08:35:59.816Z,8.68
2023-05-23T08:39:05.220Z,10.60
2023-05-23T08:42:14.319Z,8.45
2023-05-23T08:45:20.804Z,8.25
2023-05-23T08:48:26.418Z,6.47
2023-05-23T08:51:31.826Z,6.97
2023-05-23T08:54:43.428Z,6.30
2023-05-23T08:57:48.360Z,7.75
2023-05-23T09:01:06.809Z,7.97
2023-05-23T09:04:12.923Z,11.27
2023-05-23T09:07:26.604Z,4.75
2023-05-23T09:10:31.443Z,6.47
2023-05-23T09:13:37.606Z,8.48
2023-05-23T09:16:49.798Z,9.68
2023-05-23T09:19:57.650Z,4.90
2023-05-23T09:23:38.001Z,6.82
2023-05-23T09:27:02.760Z,7.47
2023-05-23T09:30:10.111Z,7.05
2023-05-23T09:33:17.027Z,6.18
2023-05-23T09:36:21.642Z,4.97
2023-05-23T09:39:25.530Z,6.45
2023-05-23T09:42:34.462Z,7.97
2023-05-23T09:45:38.235Z,8.23
2023-05-23T09:48:49.620Z,5.50
2023-05-23T09:51:59.866Z,5.28
2023-05-23T09:55:04.739Z,7.78
2023-05-23T09:58:10.024Z,6.63
2023-05-23T10:01:14.408Z,7.10
2023-05-23T10:04:21.196Z,5.85
2023-05-23T10:07:25.486Z,5.97
2023-05-23T10:10:35.044Z,6.72
2023-05-23T10:13:38.914Z,5.28
2023-05-23T10:16:46.318Z,5.30
2023-05-23T10:19:56.258Z,4.72
2023-05-23T10:23:00.632Z,8.27
2023-05-23T10:26:04.995Z,8.85
2023-05-23T10:29:09.542Z,8.25
2023-05-23T10:32:15.039Z,5.70
2023-05-23T10:35:25.406Z,5.43
2023-05-23T10:38:33.279Z,4.65
2023-05-23T10:41:41.450Z,6.43
2023-05-23T10:44:45.000Z,3.83
2023-05-23T10:47:49.671Z,4.65
2023-05-23T10:51:05.926Z,4.32
2023-05-23T10:54:13.409Z,2.53
2023-05-23T10:57:18.568Z,2.55
2023-05-23T11:00:26.593Z,4.60
2023-05-23T11:03:35.439Z,2.33
2023-05-23T11:06:44.893Z,2.97
2023-05-23T11:10:10.516Z,3.08
2023-05-23T11:13:14.190Z,2.50
2023-05-23T11:16:28.022Z,2.35
2023-05-23T11:19:34.732Z,5.22
2023-05-23T11:22:42.400Z,5.13
2023-05-23T11:25:47.507Z,5.97
2023-05-23T11:29:04.177Z,7.60
2023-05-23T11:32:17.307Z,4.18
2023-05-23T11:35:23.069Z,4.72
2023-05-23T11:38:28.916Z,2.47
2023-05-23T11:41:33.533Z,3.78
2023-05-23T11:44:37.541Z,3.88
2023-05-23T11:47:43.120Z,8.27
2023-05-23T11:50:47.690Z,7.05
2023-05-23T11:53:52.784Z,9.27
2023-05-23T11:56:57.128Z,3.25
2023-05-23T12:00:04.179Z,6.63
2023-05-23T12:03:09.893Z,2.90
2023-05-23T12:06:17.796Z,6.50
2023-05-23T12:09:23.806Z,6.80
2023-05-23T12:12:27.630Z,6.25
2023-05-23T12:15:32.609Z,6.85
2023-05-23T12:18:37.054Z,5.13
2023-05-23T12:21:44.904Z,5.13
2023-05-23T12:24:50.268Z,7.63
2023-05-23T12:27:56.275Z,12.18
2023-05-23T12:31:00.384Z,8.77
2023-05-23T12:34:04.444Z,5.13
2023-05-23T12:40:18.302Z,4.97
2023-05-23T12:43:21.977Z,11.82
2023-05-23T12:46:26.746Z,8.85
2023-05-23T12:49:31.249Z,6.93
2023-05-23T12:52:37.021Z,8.73
2023-05-23T12:55:42.578Z,7.60
2023-05-23T12:58:46.733Z,8.55
2023-05-23T13:01:51.476Z,5.80
2023-05-23T13:04:55.186Z,8.38
2023-05-23T13:07:59.463Z,5.03
2023-05-23T13:11:05.478Z,5.80
2023-05-23T13:14:09.043Z,13.63
2023-05-23T13:17:13.094Z,6.43
2023-05-23T13:20:17.894Z,11.95
2023-05-23T13:23:22.557Z,15.85
2023-05-23T13:26:27.620Z,9.55
2023-05-23T13:29:31.499Z,8.48
2023-05-23T13:32:35.976Z,10.82
2023-05-23T13:35:41.243Z,6.93
2023-05-23T13:38:45.166Z,11.70
2023-05-23T13:41:50.384Z,8.18
2023-05-23T13:44:53.850Z,9.20
2023-05-23T13:47:57.944Z,7.50
2023-05-23T13:51:02.048Z,6.63
2023-05-23T13:54:06.334Z,11.57
2023-05-23T13:57:11.703Z,9.00
2023-05-23T14:00:16.276Z,9.40
2023-05-23T14:03:20.765Z,13.30
2023-05-23T14:06:24.537Z,17.33
2023-05-23T14:09:28.080Z,10.10
2023-05-23T14:12:33.011Z,8.57
2023-05-23T14:15:38.354Z,13.00
2023-05-23T14:18:42.440Z,8.57
2023-05-23T14:21:49.255Z,9.45
2023-05-23T14:24:52.897Z,8.20
2023-05-23T14:27:58.301Z,11.70
2023-05-23T14:31:01.825Z,6.05
2023-05-23T14:34:06.746Z,7.95
2023-05-23T14:37:10.947Z,4.05
2023-05-23T14:40:22.603Z,4.90
2023-05-23T14:43:30.652Z,7.68
2023-05-23T14:46:51.696Z,4.75
2023-05-23T14:50:05.066Z,9.25
2023-05-23T14:53:10.081Z,7.38
2023-05-23T14:56:13.846Z,6.95
2023-05-23T14:59:19.626Z,13.05
2023-05-23T15:02:23.541Z,14.75
2023-05-23T15:05:28.883Z,10.60
2023-05-23T15:08:32.657Z,8.45
2023-05-23T15:11:38.030Z,10.73
2023-05-23T15:14:43.774Z,7.57
2023-05-23T15:17:47.991Z,10.93
2023-05-23T15:20:51.886Z,11.50
2023-05-23T15:23:55.809Z,6.30
2023-05-23T15:27:11.769Z,10.35
2023-05-23T15:30:25.594Z,12.20
2023-05-23T15:33:29.792Z,5.00
2023-05-23T15:36:33.251Z,11.98
2023-05-23T15:39:37.287Z,6.65
2023-05-23T15:42:41.211Z,6.97
2023-05-23T15:45:46.393Z,4.65
2023-05-23T15:48:50.253Z,8.70
2023-05-23T15:51:55.087Z,13.27
2023-05-23T15:54:59.302Z,7.95
2023-05-23T15:58:03.966Z,7.50
2023-05-23T16:01:09.976Z,13.68
2023-05-23T16:04:14.026Z,8.85
2023-05-23T16:07:18.594Z,5.13
2023-05-23T16:10:23.964Z,5.30
2023-05-23T16:13:27.849Z,8.25
2023-05-23T16:16:33.161Z,6.55
2023-05-23T16:19:36.919Z,7.78
2023-05-23T16:22:41.798Z,14.60
2023-05-23T16:25:45.596Z,18.20
2023-05-23T16:28:49.216Z,4.18
2023-05-23T16:31:57.134Z,5.22
2023-05-23T16:35:01.791Z,12.15
2023-05-23T16:38:06.149Z,9.10
2023-05-23T16:41:11.780Z,13.57
2023-05-23T16:44:19.188Z,7.03
2023-05-23T16:47:24.274Z,11.77
2023-05-23T16:50:28.239Z,9.10
2023-05-23T16:53:31.780Z,8.88
2023-05-23T16:56:36.222Z,10.25
2023-05-23T16:59:41.966Z,6.10
2023-05-23T17:02:47.498Z,9.52
2023-05-23T17:05:51.324Z,12.27
2023-05-23T17:08:57.686Z,10.15
2023-05-23T17:12:03.018Z,10.15
2023-05-23T17:15:08.107Z,9.65
2023-05-23T17:18:13.398Z,10.85
2023-05-23T17:21:17.073Z,10.30
2023-05-23T17:24:20.806Z,8.38
2023-05-23T17:27:24.213Z,9.52
2023-05-23T17:30:28.487Z,11.98
2023-05-23T17:33:33.667Z,14.27
2023-05-23T17:36:37.406Z,8.48
2023-05-23T17:39:43.340Z,9.68
2023-05-23T17:42:47.108Z,11.88
2023-05-23T17:45:50.902Z,10.70
2023-05-23T17:48:56.001Z,7.10
2023-05-23T17:51:59.942Z,5.95
2023-05-23T17:55:03.910Z,9.07
2023-05-23T17:58:08.789Z,3.97
2023-05-23T18:01:13.812Z,10.63
2023-05-23T18:04:19.861Z,11.25
2023-05-23T18:07:24.222Z,10.35
2023-05-23T18:10:28.544Z,5.22
2023-05-23T18:13:32.275Z,10.15
2023-05-23T18:16:36.853Z,7.75
2023-05-23T18:19:42.895Z,10.38
2023-05-23T18:22:48.014Z,8.15
2023-05-23T18:25:52.148Z,6.43
2023-05-23T18:28:55.573Z,11.88
2023-05-23T18:31:59.058Z,7.97
2023-05-23T18:35:04.335Z,5.50
2023-05-23T18:38:08.343Z,9.38
2023-05-23T18:41:14.719Z,13.07
2023-05-23T18:44:20.888Z,10.88
2023-05-23T18:47:25.085Z,4.90
2023-05-23T18:50:30.182Z,14.68
2023-05-23T18:53:33.858Z,8.40
2023-05-23T18:56:39.968Z,5.65
2023-05-23T18:59:43.362Z,8.57
2023-05-23T19:02:47.140Z,7.80
2023-05-23T19:05:52.567Z,11.45
2023-05-23T19:08:56.080Z,19.02
2023-05-23T19:12:00.297Z,14.50
2023-05-23T19:15:04.727Z,12.70
2023-05-23T19:18:08.555Z,9.35
2023-05-23T19:21:13.794Z,10.70
2023-05-23T19:24:17.801Z,16.38
2023-05-23T19:27:21.628Z,9.88
2023-05-23T19:30:25.717Z,9.57
2023-05-23T19:33:29.812Z,13.65
2023-05-23T19:36:35.751Z,9.63
2023-05-23T19:39:42.877Z,11.30
2023-05-23T19:42:46.753Z,8.80
2023-05-23T19:45:50.371Z,13.50
2023-05-23T19:48:54.252Z,16.02
2023-05-23T19:51:59.366Z,5.70
2023-05-23T19:55:04.211Z,6.35
2023-05-23T19:58:07.885Z,12.23
2023-05-23T20:01:12.760Z,8.93
2023-05-23T20:04:16.754Z,8.77
2023-05-23T20:07:21.934Z,11.25
2023-05-23T20:10:26.161Z,11.70
2023-05-23T20:13:30.955Z,6.15
2023-05-23T20:16:35.151Z,7.88
2023-05-23T20:19:40.294Z,12.30
2023-05-23T20:22:45.358Z,7.32
2023-05-23T20:25:48.735Z,14.18
2023-05-23T20:28:53.058Z,16.38
2023-05-23T20:31:57.248Z,11.80
2023-05-23T20:35:01.185Z,7.72
2023-05-23T20:38:06.579Z,18.08
2023-05-23T20:41:10.190Z,11.13
2023-05-23T20:44:15.967Z,11.18
2023-05-23T20:47:19.434Z,11.48
2023-05-23T20:50:23.230Z,17.38
2023-05-23T20:53:28.259Z,12.68
2023-05-23T20:56:32.137Z,13.35
2023-05-23T20:59:35.918Z,21.05
2023-05-23T21:02:39.726Z,14.00
2023-05-23T21:05:43.825Z,15.43
2023-05-23T21:08:49.508Z,17.38
2023-05-23T21:11:53.733Z,9.63
2023-05-23T21:15:00.877Z,15.10
2023-05-23T21:18:11.698Z,10.95
2023-05-23T21:21:16.508Z,7.65
2023-05-23T21:24:21.549Z,14.43
2023-05-23T21:27:25.522Z,12.70
2023-05-23T21:30:32.488Z,18.75
2023-05-23T21:33:36.550Z,16.45
2023-05-23T21:36:49.258Z,15.00
2023-05-23T21:39:54.427Z,8.38
2023-05-23T21:42:58.465Z,9.95
2023-05-23T21:46:02.286Z,13.32
2023-05-23T21:49:06.727Z,14.80
2023-05-23T21:52:10.167Z,10.18
2023-05-23T21:55:16.238Z,11.88
2023-05-23T21:58:20.308Z,12.50
2023-05-23T22:01:23.915Z,11.50
2023-05-23T22:04:28.047Z,6.65
2023-05-23T22:07:31.747Z,22.27
2023-05-23T22:10:37.225Z,16.17
2023-05-23T22:13:41.646Z,18.70
2023-05-23T22:16:45.481Z,15.65
2023-05-23T22:19:52.012Z,15.02
2023-05-23T22:22:55.697Z,10.20
2023-05-23T22:26:01.066Z,11.23
2023-05-23T22:29:04.843Z,20.67
2023-05-23T22:32:08.689Z,19.25
2023-05-23T22:35:12.416Z,19.65
2023-05-23T22:38:16.804Z,14.07
2023-05-23T22:41:23.637Z,13.95
2023-05-23T22:44:27.988Z,20.42
2023-05-23T22:47:32.433Z,20.55
2023-05-23T22:50:36.623Z,13.88
2023-05-23T22:53:41.172Z,13.10
2023-05-23T22:56:46.318Z,19.45
2023-05-23T22:59:50.001Z,21.23
2023-05-23T23:02:54.300Z,14.82
2023-05-23T23:05:59.442Z,13.40
2023-05-23T23:09:03.226Z,10.55
2023-05-23T23:12:08.845Z,14.68
2023-05-23T23:15:14.278Z,24.48
2023-05-23T23:18:19.041Z,19.92
2023-05-23T23:21:23.011Z,16.40
2023-05-23T23:24:26.907Z,16.00
2023-05-23T23:27:32.393Z,21.60
2023-05-23T23:30:36.302Z,13.25
2023-05-23T23:33:41.329Z,8.18
2023-05-23T23:36:44.964Z,10.43
2023-05-23T23:39:48.712Z,11.70
2023-05-23T23:42:53.916Z,13.95
2023-05-23T23:45:57.709Z,18.05
2023-05-23T23:49:01.479Z,16.60
2023-05-23T23:52:05.191Z,19.67
2023-05-23T23:55:09.317Z,18.20
2023-05-23T23:58:15.034Z,15.30
